Fayston, Vermont
Current Conditions -  °F | °C
As of 4:42 AM on Thursday 27 Nov 2014 (Local Time) from KMPV Reporting Station
Light Snow Light Snow  
Wind Chill: 19°   Ceiling: 1300
Heat Index: 26°   Visibility: 4mi
Dew Point: 25°   Wind: 6mph
Humidity: 96%   Direction: 350°N
Pressure: 29.89"   Gusts: NA
Location:  44.1924°N, 72.8443°W
Report Text: KMPV 270942Z AUTO 35005KT 4SM -SN BR SCT004 BKN013 OVC031 M03/M04 A2989 RMK AO2 P0000 T10331039
Loading
Personal Weather Stations






























Interactive Weather Map New forecast layout! Learn more

10-Day Weather Forecast

Advertisements
Track Severe Weather on mobile